Time;durP1;ratioP1;P1;durP2;ratioP2;P2;SDS_P1;SDS_P2;PMS_P1;PMS_P2;Temp;Humidity;BMP_temperature;BMP_pressure;BME280_temperature;BME280_humidity;BME280_pressure;Samples;Min_cycle;Max_cycle;Signal;HPM_P1;HPM_P2
2022/08/10 00:00:32;;;;;;;;;;;;;;;17.59;50.35;97126.50;6225298;28;19925;-66
2022/08/10 00:03:35;;;;;;;;;;;;;;;17.57;50.59;97128.44;6225128;28;20399;-66
2022/08/10 00:06:36;;;;;;;;;;;;;;;17.51;50.60;97125.34;6225011;28;19925;-66
2022/08/10 00:09:39;;;;;;;;;;;;;;;17.49;50.71;97121.13;6223708;28;19933;-66
2022/08/10 00:12:44;;;;;;;;;;;;;;;17.43;50.60;97122.53;6224854;28;19925;-65
2022/08/10 00:15:55;;;;;;;;;;;;;;;17.35;51.79;97122.34;6224799;28;19925;-65
2022/08/10 00:18:57;;;;;;;;;;;;;;;17.27;50.80;97119.56;6224434;28;19926;-65
2022/08/10 00:21:59;;;;;;;;;;;;;;;17.17;52.79;97124.81;6224800;28;19948;-66
2022/08/10 00:25:03;;;;;;;;;;;;;;;17.16;51.13;97124.97;6223486;28;20406;-65
2022/08/10 00:28:05;;;;;;;;;;;;;;;17.11;51.82;97116.56;6224613;28;19948;-65
2022/08/10 00:31:13;;;;;;;;;;;;;;;17.13;51.25;97125.25;6223845;28;20195;-66
2022/08/10 00:34:16;;;;;;;;;;;;;;;17.13;51.40;97126.09;6224661;28;19926;-66
2022/08/10 00:37:20;;;;;;;;;;;;;;;17.11;51.78;97130.69;6224414;28;20322;-66
2022/08/10 00:40:23;;;;;;;;;;;;;;;17.08;52.38;97122.97;6224369;28;19929;-66
2022/08/10 00:43:27;;;;;;;;;;;;;;;17.05;51.17;97129.41;6224230;28;19925;-66
2022/08/10 00:46:30;;;;;;;;;;;;;;;17.03;51.38;97136.66;6224129;28;19926;-66
2022/08/10 00:49:34;;;;;;;;;;;;;;;17.02;51.00;97144.78;6224099;28;19941;-65
2022/08/10 00:52:36;;;;;;;;;;;;;;;17.00;52.65;97152.88;6223617;28;19925;-66
2022/08/10 00:55:42;;;;;;;;;;;;;;;17.02;51.18;97152.75;6223879;28;19932;-65
2022/08/10 00:58:46;;;;;;;;;;;;;;;17.01;51.24;97156.38;6223481;28;19925;-66
2022/08/10 01:01:51;;;;;;;;;;;;;;;17.00;50.75;97160.84;6223668;28;19925;-66
2022/08/10 01:04:52;;;;;;;;;;;;;;;16.98;51.83;97154.81;6222276;28;19925;-65
2022/08/10 01:07:59;;;;;;;;;;;;;;;16.99;52.29;97163.66;6223537;28;19932;-65
2022/08/10 01:11:40;;;;;;;;;;;;;;;17.01;51.00;97154.59;6223646;28;19925;-65
2022/08/10 01:14:46;;;;;;;;;;;;;;;16.99;51.76;97161.00;6223276;28;19926;-65
2022/08/10 01:18:02;;;;;;;;;;;;;;;16.98;51.65;97164.63;6223334;28;20028;-66
2022/08/10 01:21:22;;;;;;;;;;;;;;;17.00;52.00;97168.00;6223491;28;19948;-65
2022/08/10 01:24:41;;;;;;;;;;;;;;;17.08;51.13;97165.53;6223277;28;19932;-65
2022/08/10 01:28:04;;;;;;;;;;;;;;;17.13;51.18;97173.94;6222871;28;19951;-65
2022/08/10 01:31:11;;;;;;;;;;;;;;;17.17;51.51;97180.66;6202403;28;19929;-66
2022/08/10 01:34:23;;;;;;;;;;;;;;;17.24;51.42;97188.97;6223066;28;19929;-66
2022/08/10 01:37:31;;;;;;;;;;;;;;;17.28;51.41;97193.03;6222850;28;19980;-66
2022/08/10 01:40:37;;;;;;;;;;;;;;;17.32;51.30;97199.75;6222940;28;20365;-66
2022/08/10 01:43:41;;;;;;;;;;;;;;;17.38;51.45;97198.38;6222707;28;20387;-65
2022/08/10 01:46:47;;;;;;;;;;;;;;;17.40;51.64;97197.28;6222884;28;19932;-66
2022/08/10 01:49:54;;;;;;;;;;;;;;;17.46;51.71;97195.91;6222232;28;19927;-66
2022/08/10 01:53:06;;;;;;;;;;;;;;;17.55;51.48;97199.56;6222625;28;19926;-66
2022/08/10 01:56:09;;;;;;;;;;;;;;;17.61;52.05;97205.22;6222354;28;20140;-66
2022/08/10 01:59:33;;;;;;;;;;;;;;;17.70;51.50;97198.22;6222598;28;19975;-66
2022/08/10 02:02:35;;;;;;;;;;;;;;;17.77;51.60;97194.03;6216865;28;20314;-66
2022/08/10 02:05:42;;;;;;;;;;;;;;;17.86;51.36;97203.91;6222372;28;19948;-65
2022/08/10 02:08:44;;;;;;;;;;;;;;;17.97;51.29;97204.75;6222485;28;19933;-65
2022/08/10 02:11:47;;;;;;;;;;;;;;;18.07;51.39;97210.97;6221237;28;19925;-65
2022/08/10 02:14:55;;;;;;;;;;;;;;;18.17;51.31;97215.31;6220352;28;19925;-65
2022/08/10 02:17:59;;;;;;;;;;;;;;;18.29;51.42;97210.69;6221844;28;20350;-66
2022/08/10 02:21:03;;;;;;;;;;;;;;;18.42;51.43;97214.91;6221900;28;20298;-66
2022/08/10 02:24:07;;;;;;;;;;;;;;;18.55;50.86;97226.13;6220476;28;19932;-65
2022/08/10 02:27:09;;;;;;;;;;;;;;;18.66;50.47;97225.16;6221207;28;20303;-65
2022/08/10 02:30:11;;;;;;;;;;;;;;;18.74;50.70;97222.63;6221649;28;19922;-65
2022/08/10 02:33:14;;;;;;;;;;;;;;;18.80;50.42;97230.91;6221196;28;19925;-66
2022/08/10 02:36:21;;;;;;;;;;;;;;;18.88;50.22;97226.69;6221631;28;19925;-66
2022/08/10 02:39:23;;;;;;;;;;;;;;;18.94;50.75;97236.75;6221283;28;19945;-66
2022/08/10 02:42:27;;;;;;;;;;;;;;;19.03;49.98;97228.78;6221324;28;19932;-66
2022/08/10 02:45:36;;;;;;;;;;;;;;;19.10;50.05;97229.03;6221085;28;19925;-66
2022/08/10 02:48:43;;;;;;;;;;;;;;;19.17;50.06;97231.97;6221187;28;20396;-66
2022/08/10 02:52:04;;;;;;;;;;;;;;;19.24;50.33;97233.91;6221260;28;19921;-66
2022/08/10 02:55:16;;;;;;;;;;;;;;;19.32;50.33;97232.34;6221220;28;19929;-66
2022/08/10 02:58:27;;;;;;;;;;;;;;;19.32;50.49;97241.19;6221980;28;19933;-66
2022/08/10 03:01:33;;;;;;;;;;;;;;;19.38;50.20;97245.09;6221432;28;20028;-66
2022/08/10 03:04:41;;;;;;;;;;;;;;;19.46;50.07;97245.22;6221209;28;19933;-66
2022/08/10 03:07:49;;;;;;;;;;;;;;;19.52;50.37;97242.78;6221365;28;20315;-66
2022/08/10 03:10:53;;;;;;;;;;;;;;;19.65;50.63;97241.66;6221227;28;19925;-66
2022/08/10 03:13:59;;;;;;;;;;;;;;;19.68;50.26;97247.56;6221002;28;19925;-66
2022/08/10 03:17:01;;;;;;;;;;;;;;;19.76;50.35;97248.63;6221351;28;19933;-65
2022/08/10 03:20:02;;;;;;;;;;;;;;;19.88;50.28;97242.13;6220787;28;19976;-65
2022/08/10 03:23:18;;;;;;;;;;;;;;;19.96;50.32;97240.38;6220697;28;19948;-66
2022/08/10 03:26:21;;;;;;;;;;;;;;;20.04;49.84;97245.00;6221138;28;19925;-65
2022/08/10 03:29:25;;;;;;;;;;;;;;;20.16;49.78;97246.44;6223446;28;19926;-65
2022/08/10 03:32:27;;;;;;;;;;;;;;;20.27;49.83;97247.22;6225325;28;19925;-65
2022/08/10 03:35:30;;;;;;;;;;;;;;;20.44;49.14;97246.41;6225653;28;19925;-66
2022/08/10 03:38:34;;;;;;;;;;;;;;;20.56;49.57;97247.88;6225234;28;20288;-65
2022/08/10 03:41:43;;;;;;;;;;;;;;;20.66;48.94;97246.97;6225330;28;19931;-65
2022/08/10 03:44:45;;;;;;;;;;;;;;;20.73;48.81;97237.34;6225097;28;19926;-65
2022/08/10 03:47:49;;;;;;;;;;;;;;;20.84;48.64;97239.78;6225419;28;20391;-65
2022/08/10 03:50:53;;;;;;;;;;;;;;;20.96;48.52;97245.72;6225077;28;19922;-65
2022/08/10 03:53:57;;;;;;;;;;;;;;;21.07;48.24;97248.97;6225364;28;19925;-66
2022/08/10 03:57:01;;;;;;;;;;;;;;;21.20;48.00;97245.03;6225501;28;19933;-65
2022/08/10 04:00:07;;;;;;;;;;;;;;;21.30;48.17;97254.66;6224839;28;20028;-66
2022/08/10 04:03:12;;;;;;;;;;;;;;;21.44;47.38;97250.59;6225300;28;19969;-65
2022/08/10 04:06:16;;;;;;;;;;;;;;;21.57;47.40;97247.50;6225017;28;19925;-66
2022/08/10 04:09:20;;;;;;;;;;;;;;;21.68;47.56;97249.03;6224905;28;19932;-66
2022/08/10 04:12:25;;;;;;;;;;;;;;;21.80;47.13;97258.50;6224920;28;19926;-67
2022/08/10 04:15:26;;;;;;;;;;;;;;;21.95;46.81;97250.69;6224850;28;20272;-65
2022/08/10 04:18:30;;;;;;;;;;;;;;;22.13;46.62;97254.06;6224794;28;19925;-65
2022/08/10 04:21:36;;;;;;;;;;;;;;;22.26;46.47;97252.81;6224516;28;20315;-65
2022/08/10 04:24:38;;;;;;;;;;;;;;;22.42;46.08;97251.03;6224029;28;19925;-65
2022/08/10 04:27:42;;;;;;;;;;;;;;;22.56;45.77;97259.41;6224089;28;19925;-66
2022/08/10 04:30:47;;;;;;;;;;;;;;;22.74;45.33;97252.06;6224586;28;19921;-65
2022/08/10 04:33:56;;;;;;;;;;;;;;;22.94;45.19;97257.09;6224531;28;20012;-66
2022/08/10 04:37:04;;;;;;;;;;;;;;;23.08;44.84;97254.59;6224451;28;19925;-66
2022/08/10 04:40:05;;;;;;;;;;;;;;;23.25;44.63;97260.81;6222622;28;19927;-66
2022/08/10 04:43:08;;;;;;;;;;;;;;;23.40;44.30;97250.19;6224176;28;19922;-66
2022/08/10 04:46:12;;;;;;;;;;;;;;;23.59;43.96;97254.38;6223922;28;19925;-66
2022/08/10 04:49:17;;;;;;;;;;;;;;;23.82;43.38;97251.81;6224474;28;19926;-66
2022/08/10 04:52:18;;;;;;;;;;;;;;;24.26;42.41;97258.47;6223719;28;19944;-65
2022/08/10 04:55:22;;;;;;;;;;;;;;;27.09;39.05;97259.41;6223710;28;19925;-66
2022/08/10 04:58:27;;;;;;;;;;;;;;;31.76;33.10;97267.28;6223439;28;19932;-66
2022/08/10 05:01:31;;;;;;;;;;;;;;;36.03;28.48;97277.56;6223761;28;19932;-65
2022/08/10 05:04:34;;;;;;;;;;;;;;;39.36;25.63;97285.69;6223308;28;20362;-66
2022/08/10 05:07:40;;;;;;;;;;;;;;;42.08;23.57;97283.31;6223650;28;19925;-65
2022/08/10 05:10:43;;;;;;;;;;;;;;;44.30;22.65;97291.66;6223025;28;19969;-65
2022/08/10 05:13:47;;;;;;;;;;;;;;;46.46;20.86;97296.53;6223371;28;19973;-65
2022/08/10 05:16:49;;;;;;;;;;;;;;;48.22;13.75;97291.53;6223122;28;19925;-65
2022/08/10 05:19:56;;;;;;;;;;;;;;;49.51;18.62;97293.81;6223278;28;19922;-65
2022/08/10 05:23:00;;;;;;;;;;;;;;;50.40;18.48;97287.78;6223332;28;19945;-65
2022/08/10 05:26:06;;;;;;;;;;;;;;;50.54;18.10;97296.66;6223224;28;19948;-66
2022/08/10 05:29:10;;;;;;;;;;;;;;;51.50;16.88;97297.97;6223206;28;20395;-65
2022/08/10 05:32:13;;;;;;;;;;;;;;;52.26;15.04;97296.06;6222522;28;19957;-66
2022/08/10 05:35:20;;;;;;;;;;;;;;;52.59;14.37;97292.06;6223220;28;19925;-65
2022/08/10 05:38:25;;;;;;;;;;;;;;;53.18;13.67;97291.03;6223104;28;19926;-65
2022/08/10 05:41:26;;;;;;;;;;;;;;;54.00;12.71;97303.16;6222815;28;19961;-66
2022/08/10 05:44:31;;;;;;;;;;;;;;;54.71;9.66;97304.38;6222496;28;19925;-65
2022/08/10 05:47:35;;;;;;;;;;;;;;;55.08;11.94;97298.09;6222454;28;20399;-65
2022/08/10 05:50:38;;;;;;;;;;;;;;;55.39;10.95;97287.63;6221893;28;19933;-65
2022/08/10 05:53:43;;;;;;;;;;;;;;;55.57;10.82;97285.78;6222435;28;19925;-65
2022/08/10 05:56:48;;;;;;;;;;;;;;;55.62;10.27;97278.22;6222323;28;19925;-66
2022/08/10 05:59:59;;;;;;;;;;;;;;;55.14;8.99;97278.81;6222391;28;19940;-65
2022/08/10 06:03:03;;;;;;;;;;;;;;;55.32;7.89;97265.78;6222495;28;19922;-65
2022/08/10 06:06:07;;;;;;;;;;;;;;;54.75;8.70;97264.16;6222486;28;20399;-66
2022/08/10 06:09:11;;;;;;;;;;;;;;;54.86;8.42;97265.94;6221496;28;19999;-65
2022/08/10 06:12:17;;;;;;;;;;;;;;;55.01;8.21;97271.78;6221632;28;19931;-65
2022/08/10 06:15:19;;;;;;;;;;;;;;;55.46;7.76;97270.75;6220821;28;19932;-65
2022/08/10 06:18:21;;;;;;;;;;;;;;;55.90;7.71;97264.38;6221881;28;20290;-65
2022/08/10 06:21:23;;;;;;;;;;;;;;;56.61;7.44;97266.25;6221818;28;19925;-66
2022/08/10 06:24:25;;;;;;;;;;;;;;;57.50;6.55;97268.72;6221855;28;19952;-66
2022/08/10 06:27:26;;;;;;;;;;;;;;;57.97;7.18;97266.81;6221627;28;19980;-64
2022/08/10 06:30:33;;;;;;;;;;;;;;;58.70;5.79;97265.63;6221798;28;19926;-65
2022/08/10 06:33:40;;;;;;;;;;;;;;;59.22;6.86;97268.69;6221864;28;20423;-65
2022/08/10 06:36:44;;;;;;;;;;;;;;;59.90;6.40;97266.31;6225684;28;19925;-64
2022/08/10 06:39:50;;;;;;;;;;;;;;;60.13;6.33;97273.44;6244761;28;19926;-64
2022/08/10 06:42:58;;;;;;;;;;;;;;;60.62;6.07;97260.84;6251785;28;19982;-65
2022/08/10 06:46:11;;;;;;;;;;;;;;;61.17;5.77;97261.06;6249587;28;19925;-65
2022/08/10 06:49:15;;;;;;;;;;;;;;;61.04;5.60;97252.28;6250127;28;20001;-64
2022/08/10 06:52:20;;;;;;;;;;;;;;;61.54;5.25;97257.31;6248297;28;19921;-65
2022/08/10 06:55:23;;;;;;;;;;;;;;;62.02;5.45;97259.06;6232949;28;19912;-64
2022/08/10 06:58:31;;;;;;;;;;;;;;;62.43;4.84;97257.97;6251920;28;19984;-65
2022/08/10 07:01:36;;;;;;;;;;;;;;;62.49;5.12;97259.13;6253496;28;19925;-65
2022/08/10 07:05:28;;;;;;;;;;;;;;;62.94;4.78;97257.84;6258145;28;19976;-65
2022/08/10 07:08:40;;;;;;;;;;;;;;;62.71;3.39;97252.97;6521649;23;19912;-65
2022/08/10 07:11:47;;;;;;;;;;;;;;;62.61;3.56;97244.19;6234895;28;19910;-65
2022/08/10 07:14:54;;;;;;;;;;;;;;;63.08;4.43;97242.50;6234458;28;19933;-65
2022/08/10 07:18:04;;;;;;;;;;;;;;;63.58;3.78;97255.69;6235577;28;19926;-65
2022/08/10 08:02:26;;;;;;;;;;;;;;;61.66;3.21;97196.94;6354230;22;19929;-64
2022/08/10 08:05:32;;;;;;;;;;;;;;;62.31;3.36;97195.88;6304764;28;19940;-66
2022/08/10 08:08:39;;;;;;;;;;;;;;;62.17;3.61;97185.56;6302860;28;20341;-66
2022/08/10 08:11:49;;;;;;;;;;;;;;;61.13;3.94;97175.78;6302698;28;19956;-65
2022/08/10 08:14:52;;;;;;;;;;;;;;;57.34;4.89;97161.56;6273969;28;19925;-65
2022/08/10 08:18:00;;;;;;;;;;;;;;;57.61;4.79;97156.34;6256290;28;20398;-66
2022/08/10 08:21:04;;;;;;;;;;;;;;;58.85;4.34;97167.94;6273564;28;19925;-65
2022/08/10 08:24:06;;;;;;;;;;;;;;;60.59;3.86;97165.03;6273685;28;19925;-64
2022/08/10 08:27:11;;;;;;;;;;;;;;;61.85;3.42;97175.50;6273826;28;19929;-65
2022/08/10 08:30:14;;;;;;;;;;;;;;;62.04;3.29;97176.81;6281897;28;20024;-65
2022/08/10 08:33:17;;;;;;;;;;;;;;;58.18;5.02;97153.53;6273916;28;19956;-65
2022/08/10 08:36:22;;;;;;;;;;;;;;;57.77;5.00;97145.47;6273450;28;19946;-65
2022/08/10 08:39:25;;;;;;;;;;;;;;;59.08;4.57;97148.38;6273429;28;20301;-65
2022/08/10 08:42:32;;;;;;;;;;;;;;;60.37;3.86;97158.75;6273512;28;20345;-65
2022/08/10 08:45:36;;;;;;;;;;;;;;;61.34;3.20;97159.63;6273432;28;19932;-64
2022/08/10 08:48:57;;;;;;;;;;;;;;;61.56;3.12;97158.06;6273288;28;19924;-65
2022/08/10 08:52:02;;;;;;;;;;;;;;;61.97;3.01;97157.00;6273118;28;19925;-65
2022/08/10 08:55:09;;;;;;;;;;;;;;;62.47;2.71;97153.25;6255589;28;19925;-65
2022/08/10 08:58:30;;;;;;;;;;;;;;;62.19;3.13;97159.47;6273150;28;19947;-65
2022/08/10 09:01:49;;;;;;;;;;;;;;;61.73;3.68;97156.97;6273058;28;20444;-65
2022/08/10 09:04:57;;;;;;;;;;;;;;;61.48;3.28;97143.13;6272555;28;20402;-65
2022/08/10 09:08:19;;;;;;;;;;;;;;;61.56;3.51;97146.66;6272778;28;20287;-65
2022/08/10 09:11:38;;;;;;;;;;;;;;;61.39;3.60;97142.88;6272165;28;20392;-64
2022/08/10 09:14:42;;;;;;;;;;;;;;;60.72;3.44;97130.34;6272700;28;19925;-65
2022/08/10 09:17:54;;;;;;;;;;;;;;;59.47;3.39;97130.31;6272579;28;19925;-65
2022/08/10 09:21:05;;;;;;;;;;;;;;;59.19;4.07;97133.34;6272437;28;19924;-65
2022/08/10 09:24:14;;;;;;;;;;;;;;;59.23;4.12;97125.59;6272527;28;19925;-65
2022/08/10 09:27:30;;;;;;;;;;;;;;;58.67;4.22;97122.66;6271601;28;20297;-66
2022/08/10 09:30:43;;;;;;;;;;;;;;;57.22;4.45;97111.00;6272289;28;20362;-64
2022/08/10 09:34:02;;;;;;;;;;;;;;;57.26;4.35;97104.16;6272173;28;19931;-65
2022/08/10 09:37:19;;;;;;;;;;;;;;;57.63;4.40;97108.63;6272086;28;19924;-66
2022/08/10 09:40:26;;;;;;;;;;;;;;;58.25;4.37;97100.91;6271678;28;19924;-66
2022/08/10 09:43:40;;;;;;;;;;;;;;;58.61;3.74;97113.75;6271927;28;19925;-64
2022/08/10 09:47:02;;;;;;;;;;;;;;;58.43;4.07;97113.00;6272060;28;19924;-66
2022/08/10 09:50:19;;;;;;;;;;;;;;;57.76;4.07;97109.06;6271859;28;20019;-65
2022/08/10 09:53:42;;;;;;;;;;;;;;;53.45;5.75;97097.13;6254033;28;19960;-65
2022/08/10 09:56:43;;;;;;;;;;;;;;;48.20;7.68;97087.34;6271591;28;19924;-65
2022/08/10 09:59:56;;;;;;;;;;;;;;;47.64;8.19;97091.03;6271420;28;19932;-64
2022/08/10 10:03:05;;;;;;;;;;;;;;;49.58;6.88;97095.56;6271520;28;19924;-65
2022/08/10 10:06:16;;;;;;;;;;;;;;;51.40;5.87;97089.03;6271330;28;19925;-65
2022/08/10 10:09:26;;;;;;;;;;;;;;;51.85;5.80;97096.16;6271148;28;20373;-64
2022/08/10 10:12:42;;;;;;;;;;;;;;;51.41;5.88;97090.63;6271325;28;19925;-65
2022/08/10 10:15:58;;;;;;;;;;;;;;;50.91;6.04;97092.06;6271192;28;20509;-65
2022/08/10 10:19:18;;;;;;;;;;;;;;;50.05;6.23;97081.09;6270197;28;19925;-66
2022/08/10 10:22:43;;;;;;;;;;;;;;;48.87;6.81;97080.72;6270656;28;19932;-65
2022/08/10 10:26:23;;;;;;;;;;;;;;;48.94;6.88;97080.97;6271053;28;19984;-65
2022/08/10 10:29:31;;;;;;;;;;;;;;;50.10;6.21;97080.88;6219123;28;19925;-66
2022/08/10 10:32:43;;;;;;;;;;;;;;;50.19;6.15;97075.94;6219485;28;20108;-65
2022/08/10 10:35:51;;;;;;;;;;;;;;;49.71;6.30;97074.00;6270696;28;19966;-65
2022/08/10 10:38:57;;;;;;;;;;;;;;;49.70;6.44;97078.78;6270719;28;20019;-65
2022/08/10 10:42:24;;;;;;;;;;;;;;;49.91;6.29;97077.84;6270586;28;19932;-65
2022/08/10 10:45:33;;;;;;;;;;;;;;;50.25;6.25;97071.75;6270400;28;20284;-65
2022/08/10 10:48:41;;;;;;;;;;;;;;;50.68;6.33;97064.66;6270806;28;20444;-65
2022/08/10 10:51:47;;;;;;;;;;;;;;;51.19;6.06;97062.03;6270911;28;19931;-65
2022/08/10 10:55:03;;;;;;;;;;;;;;;50.09;6.44;97059.66;6271198;28;19924;-65
2022/08/10 10:58:23;;;;;;;;;;;;;;;49.34;6.94;97062.78;6270585;28;19931;-65
2022/08/10 11:01:36;;;;;;;;;;;;;;;48.93;6.97;97057.00;6269282;28;20428;-66
2022/08/10 11:05:00;;;;;;;;;;;;;;;48.91;6.99;97053.72;6270065;28;19953;-65
2022/08/10 11:08:29;;;;;;;;;;;;;;;48.99;6.73;97061.19;6270078;28;19925;-65
2022/08/10 11:11:39;;;;;;;;;;;;;;;48.59;7.14;97051.75;6268647;28;19924;-65
2022/08/10 11:14:47;;;;;;;;;;;;;;;48.18;7.34;97047.78;6269816;28;20058;-65
2022/08/10 11:17:51;;;;;;;;;;;;;;;48.10;6.94;97046.66;6251301;28;20406;-66
2022/08/10 11:21:03;;;;;;;;;;;;;;;47.19;7.65;97052.50;6269817;28;19924;-65
2022/08/10 11:24:13;;;;;;;;;;;;;;;46.30;8.10;97043.81;6270126;28;20009;-66
2022/08/10 11:27:20;;;;;;;;;;;;;;;45.03;8.90;97051.84;6252681;28;19926;-65
2022/08/10 11:30:24;;;;;;;;;;;;;;;44.07;9.63;97053.06;6270280;28;19936;-64
2022/08/10 11:33:38;;;;;;;;;;;;;;;44.08;9.63;97048.34;6270261;28;20412;-66
2022/08/10 11:36:57;;;;;;;;;;;;;;;44.59;9.36;97036.88;6269905;28;19925;-66
2022/08/10 11:40:12;;;;;;;;;;;;;;;44.67;9.35;97051.94;6269852;28;19979;-65
2022/08/10 11:43:26;;;;;;;;;;;;;;;44.37;9.72;97040.47;6270016;28;19939;-65
2022/08/10 11:46:30;;;;;;;;;;;;;;;44.28;9.94;97030.44;6269754;28;19977;-65
2022/08/10 11:49:43;;;;;;;;;;;;;;;44.15;9.65;97032.91;6270916;28;19979;-65
2022/08/10 11:52:50;;;;;;;;;;;;;;;43.82;9.81;97034.22;6274516;28;20314;-64
2022/08/10 11:55:55;;;;;;;;;;;;;;;42.77;10.37;97023.75;6274260;28;19994;-65
2022/08/10 12:02:19;;;;;;;;;;;;;;;42.15;11.22;97016.44;6273713;28;20295;-64
2022/08/10 12:05:27;;;;;;;;;;;;;;;41.96;11.28;97018.38;6256242;28;19960;-65
2022/08/10 12:08:30;;;;;;;;;;;;;;;40.71;12.40;97013.72;6273968;28;19925;-65
2022/08/10 12:11:33;;;;;;;;;;;;;;;39.84;12.91;97008.81;6274026;28;19925;-65
2022/08/10 12:14:36;;;;;;;;;;;;;;;39.53;13.37;97013.63;6273755;28;20446;-65
2022/08/10 12:17:43;;;;;;;;;;;;;;;39.53;13.32;97008.13;6273526;28;19925;-65
2022/08/10 12:20:50;;;;;;;;;;;;;;;39.54;13.21;97007.00;6273701;28;20073;-66
2022/08/10 12:24:07;;;;;;;;;;;;;;;39.50;13.42;97006.75;6273753;28;19921;-65
2022/08/10 12:27:14;;;;;;;;;;;;;;;38.90;13.72;96999.47;6273637;28;19928;-66
2022/08/10 12:30:21;;;;;;;;;;;;;;;39.08;13.70;97001.66;6272733;28;19921;-66
2022/08/10 12:33:30;;;;;;;;;;;;;;;39.21;14.02;97006.56;6273357;28;20014;-66
2022/08/10 12:36:38;;;;;;;;;;;;;;;38.68;14.26;97008.03;6273521;28;20811;-66
2022/08/10 12:39:42;;;;;;;;;;;;;;;38.00;15.05;97011.81;6273089;28;20402;-67
2022/08/10 12:43:01;;;;;;;;;;;;;;;37.81;14.66;97014.22;6272232;28;19979;-66
2022/08/10 12:46:05;;;;;;;;;;;;;;;38.01;14.81;97009.91;6272976;28;19932;-66
2022/08/10 12:49:10;;;;;;;;;;;;;;;37.88;14.38;97014.81;6272633;28;19925;-67
2022/08/10 12:52:40;;;;;;;;;;;;;;;37.91;14.78;97017.00;6272973;28;19924;-65
2022/08/10 12:55:41;;;;;;;;;;;;;;;37.91;14.91;97017.00;6269960;28;19932;-66
2022/08/10 12:58:42;;;;;;;;;;;;;;;37.76;14.89;97019.69;6272646;28;20011;-66
2022/08/10 13:01:49;;;;;;;;;;;;;;;37.39;15.36;97014.31;6271550;28;19928;-66
2022/08/10 13:04:52;;;;;;;;;;;;;;;37.11;15.61;97018.31;6272594;28;20303;-66
2022/08/10 13:11:25;;;;;;;;;;;;;;;36.41;15.81;97024.63;6272637;28;19983;-65
2022/08/10 13:14:55;;;;;;;;;;;;;;;35.75;16.57;97018.47;6272534;28;19932;-66
2022/08/10 13:18:00;;;;;;;;;;;;;;;35.06;17.27;97016.22;6263138;28;19924;-65
2022/08/10 13:21:15;;;;;;;;;;;;;;;34.59;17.59;97011.97;6272234;28;19976;-66
2022/08/10 13:24:24;;;;;;;;;;;;;;;34.46;17.51;97011.44;6271967;28;19921;-65
2022/08/10 13:27:33;;;;;;;;;;;;;;;34.29;17.85;97012.28;6272318;28;19960;-66
2022/08/10 13:30:37;;;;;;;;;;;;;;;34.13;17.77;97015.81;6271459;28;19932;-66
2022/08/10 13:33:46;;;;;;;;;;;;;;;33.96;18.02;97013.84;6271467;28;20087;-66
2022/08/10 13:36:50;;;;;;;;;;;;;;;33.70;18.47;97020.72;6271894;28;19925;-66
2022/08/10 13:39:56;;;;;;;;;;;;;;;33.50;18.17;97021.13;6272102;28;20093;-66
2022/08/10 13:42:59;;;;;;;;;;;;;;;33.39;18.35;97016.53;6271746;28;19928;-66
2022/08/10 13:46:05;;;;;;;;;;;;;;;33.35;18.25;97012.66;6271603;28;19925;-66
2022/08/10 13:49:09;;;;;;;;;;;;;;;33.30;18.65;97018.81;6271776;28;19925;-65
2022/08/10 13:52:21;;;;;;;;;;;;;;;33.31;18.53;97014.19;6271264;28;19921;-65
2022/08/10 13:55:27;;;;;;;;;;;;;;;33.32;18.60;97024.03;6271467;28;19924;-65
2022/08/10 13:58:32;;;;;;;;;;;;;;;33.21;19.03;97028.44;6271340;28;19924;-66
2022/08/10 14:01:38;;;;;;;;;;;;;;;33.00;19.45;97016.25;6270402;28;19932;-65
2022/08/10 14:04:45;;;;;;;;;;;;;;;32.77;19.30;97018.97;6270292;28;19924;-65
2022/08/10 14:07:51;;;;;;;;;;;;;;;32.61;19.38;97018.63;6269817;28;20354;-65
2022/08/10 14:10:56;;;;;;;;;;;;;;;32.51;19.87;97021.09;6270421;28;20394;-66
2022/08/10 14:13:59;;;;;;;;;;;;;;;32.40;19.35;97021.88;6269542;28;19925;-65
2022/08/10 14:17:03;;;;;;;;;;;;;;;32.17;19.72;97014.50;6269871;28;19924;-65
2022/08/10 14:20:06;;;;;;;;;;;;;;;31.88;20.33;97018.91;6269990;28;19932;-65
2022/08/10 14:23:08;;;;;;;;;;;;;;;31.63;20.33;97011.69;6269549;28;20073;-65
2022/08/10 14:26:16;;;;;;;;;;;;;;;31.45;21.33;97014.44;6269677;28;19929;-65
2022/08/10 14:29:23;;;;;;;;;;;;;;;31.18;21.78;97025.63;6269576;28;20442;-65
2022/08/10 14:32:29;;;;;;;;;;;;;;;30.94;21.56;97023.78;6269712;28;19939;-65
2022/08/10 14:35:35;;;;;;;;;;;;;;;30.61;21.66;97023.03;6252504;28;20019;-65
2022/08/10 14:38:43;;;;;;;;;;;;;;;30.41;21.74;97031.34;6269658;28;20412;-65
2022/08/10 14:41:48;;;;;;;;;;;;;;;30.25;22.27;97026.47;6269690;28;20283;-65
2022/08/10 14:45:02;;;;;;;;;;;;;;;30.01;22.32;97024.50;6269801;28;19927;-65
2022/08/10 14:48:06;;;;;;;;;;;;;;;29.71;22.69;97025.13;6269126;28;19924;-66
2022/08/10 14:51:10;;;;;;;;;;;;;;;29.45;23.07;97026.88;6269455;28;19925;-67
2022/08/10 14:54:16;;;;;;;;;;;;;;;29.22;24.35;97032.00;6269328;28;19925;-66
2022/08/10 14:57:22;;;;;;;;;;;;;;;29.05;23.06;97032.47;6269360;28;19925;-65
2022/08/10 15:00:24;;;;;;;;;;;;;;;28.90;23.10;97037.25;6182042;28;1987492;-66
2022/08/10 15:03:27;;;;;;;;;;;;;;;28.78;23.59;97036.22;6269485;28;19925;-68
2022/08/10 15:06:35;;;;;;;;;;;;;;;28.58;23.47;97038.97;6270164;28;19925;-66
2022/08/10 15:09:46;;;;;;;;;;;;;;;28.40;24.19;97039.56;6269969;28;19925;-66
2022/08/10 15:12:51;;;;;;;;;;;;;;;28.23;24.47;97049.13;6269854;28;20402;-66
2022/08/10 15:16:00;;;;;;;;;;;;;;;28.06;24.34;97041.41;6252488;28;20302;-66
2022/08/10 15:19:07;;;;;;;;;;;;;;;27.89;24.41;97046.38;6270004;28;19924;-66
2022/08/10 15:22:12;;;;;;;;;;;;;;;27.76;24.65;97049.00;6269982;28;20322;-66
2022/08/10 15:25:15;;;;;;;;;;;;;;;27.61;24.62;97057.28;6272113;28;19932;-66
2022/08/10 15:28:18;;;;;;;;;;;;;;;27.50;24.86;97055.16;6274766;28;19925;-66
2022/08/10 15:31:20;;;;;;;;;;;;;;;27.40;25.17;97055.53;6274783;28;19924;-66
2022/08/10 15:37:42;;;;;;;;;;;;;;;27.08;25.88;97059.72;6274864;28;19928;-67
2022/08/10 15:40:48;;;;;;;;;;;;;;;26.92;25.73;97062.72;6273070;28;19924;-65
2022/08/10 15:43:53;;;;;;;;;;;;;;;26.76;26.56;97056.63;6273558;28;19932;-66
2022/08/10 15:47:01;;;;;;;;;;;;;;;26.63;26.72;97059.22;6273838;28;19945;-65
2022/08/10 15:50:20;;;;;;;;;;;;;;;26.52;27.76;97065.13;6273596;28;19931;-66
2022/08/10 15:53:40;;;;;;;;;;;;;;;26.39;26.62;97071.25;6273658;28;19921;-66
2022/08/10 15:56:47;;;;;;;;;;;;;;;26.26;27.54;97071.13;6273721;28;19931;-66
2022/08/10 15:59:58;;;;;;;;;;;;;;;26.10;27.66;97074.91;6273863;28;20342;-65
2022/08/10 16:03:06;;;;;;;;;;;;;;;25.92;28.31;97073.47;6255833;28;19972;-65
2022/08/10 16:06:15;;;;;;;;;;;;;;;25.76;29.21;97069.16;6273445;28;19956;-65
2022/08/10 16:09:18;;;;;;;;;;;;;;;25.62;29.45;97066.47;6255199;28;20248;-66
2022/08/10 16:12:25;;;;;;;;;;;;;;;25.50;29.52;97075.03;6273645;28;19928;-66
2022/08/10 16:15:28;;;;;;;;;;;;;;;25.37;30.23;97080.28;6274175;28;20287;-65
2022/08/10 16:18:31;;;;;;;;;;;;;;;25.25;30.31;97079.06;6272964;28;19947;-64
2022/08/10 16:21:34;;;;;;;;;;;;;;;25.15;31.09;97076.69;6273425;28;19947;-65
2022/08/10 16:24:37;;;;;;;;;;;;;;;25.03;30.78;97073.59;6273109;28;19932;-66
2022/08/10 16:27:44;;;;;;;;;;;;;;;24.93;31.19;97089.16;6273655;28;20391;-66
2022/08/10 16:30:47;;;;;;;;;;;;;;;24.84;31.71;97091.09;6272665;28;19932;-66
2022/08/10 16:33:52;;;;;;;;;;;;;;;24.74;32.15;97087.00;6272940;28;19971;-65
2022/08/10 16:37:07;;;;;;;;;;;;;;;24.61;32.89;97080.41;6273080;28;19925;-65
2022/08/10 16:40:10;;;;;;;;;;;;;;;24.51;32.45;97090.56;6272959;28;19929;-66
2022/08/10 16:43:15;;;;;;;;;;;;;;;24.42;33.02;97097.03;6272999;28;19936;-66
2022/08/10 16:46:20;;;;;;;;;;;;;;;24.33;32.34;97098.13;6272374;28;19925;-66
2022/08/10 16:49:23;;;;;;;;;;;;;;;24.24;33.44;97101.88;6272296;28;19932;-66
2022/08/10 16:52:26;;;;;;;;;;;;;;;24.15;32.88;97101.94;6271857;28;20319;-67
2022/08/10 16:55:32;;;;;;;;;;;;;;;24.13;33.11;97101.28;6272659;28;19925;-67
2022/08/10 16:58:42;;;;;;;;;;;;;;;24.07;32.77;97110.06;6254510;28;20011;-66
2022/08/10 17:01:46;;;;;;;;;;;;;;;24.04;32.99;97114.97;6271877;28;20395;-66
2022/08/10 17:04:50;;;;;;;;;;;;;;;23.98;32.92;97111.16;6272359;28;19924;-66
2022/08/10 17:08:01;;;;;;;;;;;;;;;23.94;33.13;97109.81;6271687;28;20272;-66
2022/08/10 17:11:04;;;;;;;;;;;;;;;23.92;33.25;97111.84;6272249;28;19925;-65